Aurelius, New York
Current Conditions -  °F | °C
As of 10:54 PM on Sunday 25 Jan 2015 (Local Time) from KSYR Reporting Station
Clear Clear  
Wind Chill:   Ceiling: Unl
Heat Index:   Visibility: 10mi
Dew Point:   Wind: 3mph
Humidity: 73%   Direction: 110°ESE
Pressure: 30.07"   Gusts: NA
Location:  42.9235°N, 76.5525°W
Report Text: KSYR 260354Z 11003KT 10SM CLR M14/M18 A3007 RMK AO2 SLP189 T11391178 $
Loading
Personal Weather Stations






























Interactive Weather Map New forecast layout! Learn more

10-Day Weather Forecast

Advertisements
Track Severe Weather on mobile